This is the latest recevied weather packets stored in our database for station/object EA5JMY-10. If no packets are shown the sender has not sent any weather packets the latest 10 day(s).
| Time | Temp. | Humidity | Pressure | Rain* | Wind** | Luminosity | Snow |
|---|---|---|---|---|---|---|---|
| 1777582249 | 20.56° C | 70% | 1019.9 hPa | - | - | - | - |
| 1777581348 | 20.56° C | 70% | 1019.7 hPa | - | - | - | - |
| 1777580448 | 20.56° C | 70% | 1019.4 hPa | - | - | - | - |
| 1777579548 | 20.56° C | 70% | 1019.2 hPa | - | - | - | - |
| 1777578648 | 20.56° C | 70% | 1019 hPa | - | - | - | - |
| 1777577748 | 20.56° C | 69% | 1018.6 hPa | - | - | - | - |
| 1777576847 | 20.56° C | 70% | 1018.5 hPa | - | - | - | - |
| 1777575947 | 20.56° C | 70% | 1018.3 hPa | - | - | - | - |
| 1777575047 | 20.56° C | 70% | 1018 hPa | - | - | - | - |
| 1777574147 | 20.56° C | 69% | 1017.9 hPa | - | - | - | - |
| 1777573247 | 21.11° C | 67% | 1017.5 hPa | - | - | - | - |
| 1777572347 | 21.11° C | 67% | 1017.3 hPa | - | - | - | - |
| 1777571447 | 21.67° C | 64% | 1017.3 hPa | - | - | - | - |
| 1777569646 | 22.22° C | 61% | 1017.2 hPa | - | - | - | - |
| 1777568770 | 22.22° C | 62% | 1017.3 hPa | - | - | - | - |
| 1777567954 | 23.33° C | 59% | 1017.3 hPa | - | - | - | - |
| 1777566946 | 23.33° C | 59% | 1017.3 hPa | - | - | - | - |
| 1777566046 | 23.33° C | 58% | 1017.3 hPa | - | - | - | - |
| 1777565146 | 23.33° C | 58% | 1017.4 hPa | - | - | - | - |
| 1777564246 | 23.33° C | 57% | 1017.4 hPa | - | - | - | - |
| 1777563346 | 24.44° C | 54% | 1017.3 hPa | - | - | - | - |
| 1777562445 | 23.89° C | 56% | 1017.2 hPa | - | - | - | - |
| 1777561546 | 24.44° C | 52% | 1017.4 hPa | - | - | - | - |
| 1777559745 | 24.44° C | 51% | 1017.3 hPa | - | - | - | - |
| 1777558845 | 23.89° C | 52% | 1017.4 hPa | - | - | - | - |
* Rain since midnight (hover to see other rain measurements)
** Current wind speed in m/s (hover to see current wind gust speed)